Time;durP1;ratioP1;P1;durP2;ratioP2;P2;SDS_P1;SDS_P2;PMS_P1;PMS_P2;Temp;Humidity;BMP_temperature;BMP_pressure;BME280_temperature;BME280_humidity;BME280_pressure;Samples;Min_cycle;Max_cycle;Signal;HPM_P1;HPM_P2
2021/01/20 00:02:14;;;;;;;48.58;29.45;;;102.80;1817.60;;;;;;5034038;28;20475;-66
2021/01/20 00:04:39;;;;;;;50.60;27.67;;;102.80;1817.60;;;;;;5034047;28;20025;-66
2021/01/20 00:07:05;;;;;;;49.13;29.48;;;102.80;1817.60;;;;;;5033878;28;20494;-66
2021/01/20 00:09:31;;;;;;;48.88;26.92;;;102.80;1817.60;;;;;;5033989;28;20431;-66
2021/01/20 00:11:56;;;;;;;51.50;27.67;;;102.80;1817.60;;;;;;5033906;28;20045;-66
2021/01/20 00:14:22;;;;;;;49.70;27.42;;;102.90;1817.60;;;;;;5022956;28;20549;-66
2021/01/20 00:16:48;;;;;;;56.38;27.50;;;102.90;1817.60;;;;;;5014338;28;20105;-66
2021/01/20 00:19:14;;;;;;;56.40;27.40;;;103.00;1817.60;;;;;;5020186;28;20048;-66
2021/01/20 00:21:39;;;;;;;56.65;28.50;;;103.00;1817.60;;;;;;5034046;28;20028;-65
2021/01/20 00:24:06;;;;;;;55.97;28.27;;;103.00;1792.00;;;;;;5033963;28;20395;-66
2021/01/20 00:26:33;;;;;;;52.70;27.02;;;103.10;1817.60;;;;;;5033717;28;20031;-65
2021/01/20 00:28:59;;;;;;;50.60;27.15;;;103.10;1792.00;;;;;;5034013;28;20029;-66
2021/01/20 00:31:25;;;;;;;54.33;28.30;;;103.10;1792.00;;;;;;5033754;28;20096;-65
2021/01/20 00:33:50;;;;;;;49.50;27.33;;;103.00;1792.00;;;;;;5033922;28;20105;-66
2021/01/20 00:36:16;;;;;;;51.00;26.83;;;103.00;1792.00;;;;;;5033629;28;20032;-66
2021/01/20 00:38:42;;;;;;;69.18;30.58;;;103.10;1792.00;;;;;;5033599;28;20026;-66
2021/01/20 00:41:07;;;;;;;96.55;38.45;;;103.10;1792.00;;;;;;5033877;28;20025;-66
2021/01/20 00:43:33;;;;;;;154.68;51.03;;;103.10;1792.00;;;;;;5033382;28;20025;-66
2021/01/20 00:45:59;;;;;;;208.40;65.25;;;103.10;1792.00;;;;;;5033716;28;20080;-66
2021/01/20 00:48:24;;;;;;;242.27;71.32;;;103.10;1792.00;;;;;;5033484;28;20485;-65
2021/01/20 00:50:54;;;;;;;193.80;61.75;;;103.10;1792.00;;;;;;5033719;28;20021;-65
2021/01/20 00:53:20;;;;;;;154.68;53.78;;;103.10;1792.00;;;;;;5033505;28;20018;-65
2021/01/20 00:55:46;;;;;;;129.10;50.15;;;103.10;1792.00;;;;;;5015224;28;20049;-66
2021/01/20 00:58:12;;;;;;;94.50;42.83;;;103.20;1792.00;;;;;;5033683;28;20493;-66
2021/01/20 01:00:37;;;;;;;81.10;37.15;;;103.20;1792.00;;;;;;5015230;28;20050;-65
2021/01/20 01:03:03;;;;;;;64.93;32.13;;;103.20;1792.00;;;;;;5033446;28;20025;-65
2021/01/20 01:05:29;;;;;;;55.33;27.45;;;103.20;1792.00;;;;;;5033238;28;20057;-66
2021/01/20 01:07:55;;;;;;;47.25;27.38;;;103.20;1792.00;;;;;;5033496;28;20021;-65
2021/01/20 01:10:21;;;;;;;52.60;26.55;;;103.20;1792.00;;;;;;5033287;28;20037;-66
2021/01/20 01:12:47;;;;;;;49.38;27.25;;;103.30;1792.00;;;;;;5033420;28;20040;-65
2021/01/20 01:15:13;;;;;;;48.28;26.27;;;103.20;1792.00;;;;;;5033203;28;20037;-65
2021/01/20 01:17:38;;;;;;;54.30;28.48;;;103.20;1792.00;;;;;;5035880;28;20029;-66
2021/01/20 01:20:05;;;;;;;48.30;25.85;;;103.30;1792.00;;;;;;5037232;28;20022;-65
2021/01/20 01:22:30;;;;;;;51.67;27.70;;;103.30;1792.00;;;;;;5037112;28;20024;-65
2021/01/20 01:24:56;;;;;;;52.30;28.40;;;103.30;1766.40;;;;;;5037316;28;20025;-65
2021/01/20 01:27:22;;;;;;;60.90;29.67;;;128.00;1792.00;;;;;;5036944;28;20022;-66
2021/01/20 01:29:47;;;;;;;63.30;29.25;;;103.30;1766.40;;;;;;5037050;28;20092;-65
2021/01/20 01:32:13;;;;;;;74.65;29.92;;;128.00;1792.00;;;;;;5036903;28;20095;-65
2021/01/20 01:34:39;;;;;;;74.90;28.52;;;128.00;1817.60;;;;;;5037097;28;20103;-66
2021/01/20 01:37:07;;;;;;;69.78;29.23;;;128.00;1792.00;;;;;;5036994;28;20053;-66
2021/01/20 01:39:34;;;;;;;77.50;29.65;;;128.00;1792.00;;;;;;5036288;28;20057;-65
2021/01/20 01:42:01;;;;;;;75.68;28.70;;;128.00;1817.60;;;;;;5036995;28;20028;-66
2021/01/20 01:44:27;;;;;;;65.30;28.20;;;128.00;1817.60;;;;;;5036405;28;20029;-65
2021/01/20 01:46:52;;;;;;;77.47;27.98;;;128.00;1817.60;;;;;;5036750;28;20388;-65
2021/01/20 01:49:18;;;;;;;86.07;31.33;;;128.00;1817.60;;;;;;5036825;28;20033;-66
2021/01/20 01:51:44;;;;;;;83.15;32.53;;;128.00;1817.60;;;;;;5036815;28;20503;-66
2021/01/20 01:54:10;;;;;;;83.43;33.00;;;128.00;1817.60;;;;;;5036510;28;20038;-65
2021/01/20 01:56:36;;;;;;;99.18;35.08;;;128.00;1817.60;;;;;;5018079;28;20050;-65
2021/01/20 01:59:03;;;;;;;82.57;34.88;;;128.00;1817.60;;;;;;5036764;28;20032;-66
2021/01/20 02:01:28;;;;;;;92.40;36.67;;;128.00;1817.60;;;;;;5036836;28;20045;-66
2021/01/20 02:03:54;;;;;;;82.93;35.40;;;128.00;1817.60;;;;;;5036623;28;20025;-66
2021/01/20 02:06:20;;;;;;;91.57;34.83;;;128.00;1817.60;;;;;;5036548;28;20033;-65
2021/01/20 02:08:48;;;;;;;92.18;34.00;;;128.10;1817.60;;;;;;5036215;28;20026;-65
2021/01/20 02:11:31;;;;;;;77.00;31.52;;;128.10;1817.60;;;;;;5036113;28;20049;-66
2021/01/20 02:14:18;;;;;;;87.22;32.53;;;128.10;1817.60;;;;;;5036396;28;20517;-65
2021/01/20 02:17:12;;;;;;;82.07;30.10;;;128.10;1817.60;;;;;;5036004;28;20438;-66
2021/01/20 02:20:15;;;;;;;78.38;31.88;;;128.10;1817.60;;;;;;5035553;28;20502;-65
2021/01/20 02:22:44;;;;;;;72.53;29.88;;;128.10;1817.60;;;;;;4955833;28;20042;-65
2021/01/20 02:25:28;;;;;;;62.85;27.85;;;128.10;1817.60;;;;;;4955884;29;20430;-66
2021/01/20 02:28:13;;;;;;;54.10;25.15;;;128.10;1817.60;;;;;;4955590;28;20031;-65
2021/01/20 02:30:40;;;;;;;;;;;128.10;1817.60;;;;;;4956246;29;20027;-66
2021/01/20 02:33:08;;;;;;;51.65;24.13;;;128.10;1817.60;;;;;;4955590;29;20041;-65
2021/01/20 02:35:34;;;;;;;43.45;22.73;;;128.10;1817.60;;;;;;4955652;29;20070;-65
2021/01/20 02:38:02;;;;;;;41.58;21.60;;;128.10;1817.60;;;;;;4955594;29;20100;-66
2021/01/20 02:40:28;;;;;;;40.50;21.73;;;128.10;1817.60;;;;;;4955670;29;20112;-65
2021/01/20 02:42:53;;;;;;;46.40;23.08;;;128.10;1817.60;;;;;;4955464;29;20513;-66
2021/01/20 02:45:19;;;;;;;41.15;22.52;;;128.20;1817.60;;;;;;4955452;29;20039;-65
2021/01/20 02:47:47;;;;;;;42.08;22.65;;;128.20;1817.60;;;;;;4955330;29;20040;-65
2021/01/20 02:50:14;;;;;;;41.55;24.67;;;128.20;1817.60;;;;;;4955502;29;20162;-65
2021/01/20 02:53:09;;;;;;;40.88;22.17;;;128.20;1817.60;;;;;;4955265;29;20051;-65
2021/01/20 02:55:36;;;;;;;38.33;21.50;;;128.30;1817.60;;;;;;4955196;29;20042;-65
2021/01/20 02:58:13;;;;;;;42.90;22.13;;;128.20;1817.60;;;;;;4965811;28;20050;-66
2021/01/20 03:00:41;;;;;;;36.20;21.42;;;128.20;1792.00;;;;;;5035382;28;20033;-66
2021/01/20 03:03:09;;;;;;;37.42;22.48;;;128.30;1792.00;;;;;;5035353;28;20033;-65
2021/01/20 03:05:36;;;;;;;35.97;21.17;;;128.30;1817.60;;;;;;5035182;28;20364;-65
2021/01/20 03:08:03;;;;;;;37.13;21.25;;;128.30;1817.60;;;;;;5035304;28;20387;-65
2021/01/20 03:10:29;;;;;;;36.72;21.83;;;128.30;1792.00;;;;;;5034952;28;20036;-65
2021/01/20 03:12:55;;;;;;;39.28;21.67;;;128.20;1817.60;;;;;;5035253;28;20034;-65
2021/01/20 03:15:34;;;;;;;37.20;21.73;;;128.20;1817.60;;;;;;5035333;28;20422;-65
2021/01/20 03:18:00;;;;;;;38.55;21.13;;;128.20;1817.60;;;;;;5034990;28;20057;-65
2021/01/20 03:20:26;;;;;;;40.13;20.33;;;128.20;1817.60;;;;;;5034950;28;20053;-65
2021/01/20 03:22:52;;;;;;;34.42;19.38;;;128.20;1817.60;;;;;;5035154;28;20032;-65
2021/01/20 03:25:18;;;;;;;43.92;21.67;;;128.30;1817.60;;;;;;5034835;28;20456;-65
2021/01/20 03:27:43;;;;;;;40.40;21.42;;;128.30;1817.60;;;;;;5034870;28;20026;-65
2021/01/20 03:30:09;;;;;;;34.80;19.27;;;128.40;1792.00;;;;;;5034973;28;20055;-66
2021/01/20 03:32:35;;;;;;;35.92;17.45;;;128.50;1792.00;;;;;;5034260;28;20029;-66
2021/01/20 03:35:01;;;;;;;34.83;17.98;;;128.50;1792.00;;;;;;5034732;28;20041;-65
2021/01/20 03:37:27;;;;;;;36.17;18.10;;;128.60;1792.00;;;;;;5034935;28;20025;-65
2021/01/20 03:39:52;;;;;;;30.73;15.93;;;128.60;1792.00;;;;;;5034085;28;20426;-65
2021/01/20 03:42:18;;;;;;;28.90;13.32;;;128.70;1792.00;;;;;;5034631;28;20029;-65
2021/01/20 03:44:44;;;;;;;25.02;13.40;;;128.70;1792.00;;;;;;5034800;28;20030;-65
2021/01/20 03:47:09;;;;;;;29.13;14.40;;;128.70;1792.00;;;;;;5034530;28;20021;-65
2021/01/20 03:49:35;;;;;;;27.83;13.70;;;128.70;1766.40;;;;;;5034712;28;20029;-65
2021/01/20 03:52:01;;;;;;;23.83;13.25;;;128.70;1766.40;;;;;;5034680;28;20348;-65
2021/01/20 03:54:27;;;;;;;23.80;13.60;;;128.70;1766.40;;;;;;5034247;28;20034;-65
2021/01/20 03:56:52;;;;;;;30.67;16.98;;;128.80;1766.40;;;;;;5034457;28;20040;-65
2021/01/20 03:59:18;;;;;;;31.88;18.33;;;128.80;1766.40;;;;;;5034432;28;20084;-65
2021/01/20 04:01:44;;;;;;;40.97;19.73;;;128.80;1766.40;;;;;;5034337;28;20120;-65
2021/01/20 04:04:09;;;;;;;32.83;19.15;;;128.80;1766.40;;;;;;5034213;28;20091;-65
2021/01/20 04:06:35;;;;;;;36.65;20.80;;;128.90;1766.40;;;;;;5034389;28;20029;-65
2021/01/20 04:09:01;;;;;;;38.38;25.25;;;128.90;1766.40;;;;;;5034392;28;20034;-65
2021/01/20 04:11:26;;;;;;;39.83;26.15;;;128.90;1740.80;;;;;;5034116;28;20372;-65
2021/01/20 04:13:52;;;;;;;46.90;27.10;;;128.90;1766.40;;;;;;5034328;28;20055;-65
2021/01/20 04:16:18;;;;;;;57.78;31.20;;;128.90;1766.40;;;;;;5034302;28;20044;-65
2021/01/20 04:18:44;;;;;;;58.25;31.10;;;128.90;1740.80;;;;;;5034077;28;20021;-65
2021/01/20 04:21:10;;;;;;;55.03;31.75;;;128.90;1766.40;;;;;;5034304;28;20028;-65
2021/01/20 04:23:39;;;;;;;55.03;28.88;;;128.90;1766.40;;;;;;5034082;28;20021;-65
2021/01/20 04:26:08;;;;;;;52.40;26.00;;;128.90;1766.40;;;;;;5033899;28;20056;-65
2021/01/20 04:28:34;;;;;;;37.08;19.55;;;128.90;1740.80;;;;;;5034196;28;20021;-65
2021/01/20 04:31:00;;;;;;;35.53;16.10;;;128.90;1740.80;;;;;;5033874;28;20017;-65
2021/01/20 04:33:26;;;;;;;27.75;12.98;;;128.90;1766.40;;;;;;5033511;28;20040;-65
2021/01/20 04:35:52;;;;;;;32.08;10.52;;;153.60;1740.80;;;;;;5033813;28;20034;-65
2021/01/20 04:38:18;;;;;;;20.67;9.20;;;153.60;1740.80;;;;;;5033369;28;20030;-65
2021/01/20 04:40:44;;;;;;;34.00;10.02;;;153.60;1740.80;;;;;;5033500;28;20029;-65
2021/01/20 04:43:11;;;;;;;35.83;11.38;;;153.70;1740.80;;;;;;5033625;28;20021;-65
2021/01/20 04:45:36;;;;;;;22.35;11.30;;;153.60;1740.80;;;;;;5033254;28;20032;-65
2021/01/20 04:48:03;;;;;;;24.05;11.57;;;153.70;1740.80;;;;;;5033561;28;20096;-65
2021/01/20 04:50:31;;;;;;;23.88;11.65;;;153.70;1740.80;;;;;;5033150;28;20113;-65
2021/01/20 04:53:01;;;;;;;33.97;11.93;;;153.70;1715.20;;;;;;5033174;28;20094;-65
2021/01/20 04:55:28;;;;;;;25.92;10.85;;;153.70;1740.80;;;;;;5033692;28;20041;-65
2021/01/20 04:57:54;;;;;;;23.63;9.98;;;153.60;1740.80;;;;;;5033405;28;20022;-66
2021/01/20 05:00:20;;;;;;;21.33;10.23;;;153.70;1740.80;;;;;;5033498;28;20033;-65
2021/01/20 05:02:47;;;;;;;22.50;10.00;;;153.70;1740.80;;;;;;5033404;28;20025;-65
2021/01/20 05:05:13;;;;;;;25.30;10.77;;;153.70;1740.80;;;;;;5033569;28;20495;-65
2021/01/20 05:07:38;;;;;;;16.83;9.75;;;153.70;1740.80;;;;;;5033478;28;20034;-66
2021/01/20 05:10:05;;;;;;;15.38;9.23;;;153.60;1740.80;;;;;;5033319;28;20036;-65
2021/01/20 05:12:34;;;;;;;13.27;9.35;;;153.70;1740.80;;;;;;5033273;28;20078;-65
2021/01/20 05:15:03;;;;;;;14.75;9.73;;;153.60;1740.80;;;;;;5033310;28;20405;-65
2021/01/20 05:17:29;;;;;;;16.85;10.27;;;153.60;1740.80;;;;;;5033379;28;20025;-65
2021/01/20 05:19:54;;;;;;;15.20;10.10;;;153.60;1740.80;;;;;;5032949;28;20034;-65
2021/01/20 05:22:20;;;;;;;15.82;10.07;;;153.60;1740.80;;;;;;5033511;28;20148;-65
2021/01/20 05:25:03;;;;;;;16.45;10.07;;;153.60;1740.80;;;;;;5033294;28;20471;-65
2021/01/20 05:27:30;;;;;;;16.30;10.10;;;153.60;1740.80;;;;;;5015713;28;20025;-65
2021/01/20 05:29:58;;;;;;;19.17;10.43;;;153.60;1740.80;;;;;;5033407;28;20026;-65
2021/01/20 05:32:23;;;;;;;17.80;10.60;;;153.60;1740.80;;;;;;5033173;28;20517;-64
2021/01/20 05:35:09;;;;;;;14.20;8.93;;;153.60;1740.80;;;;;;5033172;28;20029;-65
2021/01/20 05:37:45;;;;;;;17.13;9.38;;;153.70;1740.80;;;;;;5033132;28;20103;-65
2021/01/20 05:40:16;;;;;;;16.33;9.20;;;153.80;1740.80;;;;;;5033204;28;20025;-65
2021/01/20 05:42:53;;;;;;;17.88;9.65;;;153.80;1740.80;;;;;;5033384;28;20120;-65
2021/01/20 05:45:21;;;;;;;15.18;9.23;;;153.80;1740.80;;;;;;5033114;28;20018;-65
2021/01/20 05:48:09;;;;;;;18.15;11.15;;;153.80;1740.80;;;;;;5033303;28;20045;-65
2021/01/20 05:50:37;;;;;;;23.52;11.65;;;153.80;1740.80;;;;;;5033321;28;20022;-65
2021/01/20 05:53:08;;;;;;;22.75;12.63;;;153.80;1740.80;;;;;;5033176;28;20018;-65
2021/01/20 05:55:35;;;;;;;27.52;14.18;;;153.90;1715.20;;;;;;5032963;28;20063;-66
2021/01/20 05:58:01;;;;;;;59.00;28.65;;;153.90;1715.20;;;;;;5033126;28;20356;-65
2021/01/20 06:00:28;;;;;;;51.13;26.95;;;153.90;1715.20;;;;;;5033470;28;20034;-65
2021/01/20 06:02:55;;;;;;;56.78;28.02;;;153.90;1715.20;;;;;;5033850;28;20017;-65
2021/01/20 06:05:22;;;;;;;51.88;28.10;;;153.90;1715.20;;;;;;5036454;28;20040;-65
2021/01/20 06:07:50;;;;;;;54.67;29.60;;;153.90;1715.20;;;;;;5036531;28;20100;-65
2021/01/20 06:10:16;;;;;;;97.53;46.75;;;154.00;1715.20;;;;;;5036387;28;20025;-66
2021/01/20 06:12:42;;;;;;;79.93;40.85;;;154.00;1715.20;;;;;;5036526;28;20113;-65
2021/01/20 06:15:08;;;;;;;67.38;37.03;;;154.00;1715.20;;;;;;5036200;28;20120;-65
2021/01/20 06:17:41;;;;;;;68.97;33.80;;;154.00;1715.20;;;;;;5036092;28;20022;-65
2021/01/20 06:20:07;;;;;;;58.70;31.73;;;154.00;1715.20;;;;;;5036204;28;20068;-65
2021/01/20 06:22:39;;;;;;;50.38;26.23;;;154.10;1715.20;;;;;;5036106;28;20022;-65
2021/01/20 06:25:09;;;;;;;39.88;23.67;;;154.10;1715.20;;;;;;5036313;28;20112;-65
2021/01/20 06:27:54;;;;;;;38.83;19.20;;;154.10;1715.20;;;;;;5036040;28;20068;-65
2021/01/20 06:30:30;;;;;;;39.47;17.00;;;154.10;1715.20;;;;;;5036067;28;20029;-65
2021/01/20 06:32:58;;;;;;;44.65;19.67;;;154.20;1689.60;;;;;;5035988;28;20033;-65
2021/01/20 06:35:36;;;;;;;46.78;20.80;;;154.10;1689.60;;;;;;5036063;28;20041;-65
2021/01/20 06:38:02;;;;;;;51.88;23.30;;;154.20;1715.20;;;;;;5036081;28;20019;-65
2021/01/20 06:40:28;;;;;;;41.15;23.92;;;154.20;1715.20;;;;;;5035827;28;20079;-65
2021/01/20 06:42:54;;;;;;;57.53;26.38;;;154.20;1715.20;;;;;;5036168;28;20096;-65
2021/01/20 06:45:22;;;;;;;57.88;26.30;;;154.30;1715.20;;;;;;5035603;28;20029;-65
2021/01/20 06:48:00;;;;;;;40.38;24.10;;;154.30;1715.20;;;;;;5035641;28;20156;-65
2021/01/20 06:50:32;;;;;;;50.20;25.88;;;154.30;1689.60;;;;;;5035725;28;20108;-65
2021/01/20 06:53:09;;;;;;;52.38;28.20;;;154.40;1689.60;;;;;;5035669;28;20033;-65
2021/01/20 06:55:36;;;;;;;66.88;34.78;;;154.40;1689.60;;;;;;5035518;28;20037;-65
2021/01/20 06:58:25;;;;;;;69.32;36.13;;;154.40;1689.60;;;;;;5035749;28;20475;-65
2021/01/20 07:01:00;;;;;;;58.70;37.67;;;154.50;1689.60;;;;;;5035582;28;20036;-65
2021/01/20 07:03:54;;;;;;;66.22;38.28;;;154.50;1689.60;;;;;;5035428;28;20030;-65
2021/01/20 07:06:40;;;;;;;81.95;40.58;;;154.50;1689.60;;;;;;5035438;28;20029;-66
2021/01/20 07:09:14;;;;;;;85.80;43.47;;;179.20;1689.60;;;;;;5035312;28;20026;-66
2021/01/20 07:12:01;;;;;;;83.20;45.50;;;179.20;1689.60;;;;;;5035206;28;20045;-65
2021/01/20 07:14:27;;;;;;;98.50;50.33;;;179.20;1689.60;;;;;;5034513;28;20048;-65
2021/01/20 07:16:55;;;;;;;97.80;49.08;;;179.20;1689.60;;;;;;5035280;28;20119;-65
2021/01/20 07:19:25;;;;;;;71.97;38.25;;;179.30;1689.60;;;;;;5035080;28;20018;-65
2021/01/20 07:21:51;;;;;;;68.95;36.20;;;179.30;1689.60;;;;;;5035117;28;20026;-65
2021/01/20 07:24:17;;;;;;;71.72;35.17;;;179.30;1664.00;;;;;;5034869;28;20036;-65
2021/01/20 07:26:44;;;;;;;69.82;38.58;;;179.30;1664.00;;;;;;5034987;28;20053;-65
2021/01/20 07:29:22;;;;;;;77.68;40.83;;;179.40;1689.60;;;;;;5035195;28;20068;-66
2021/01/20 07:31:50;;;;;;;75.80;41.10;;;179.40;1664.00;;;;;;5035196;28;20091;-66
2021/01/20 07:34:19;;;;;;;74.78;36.80;;;179.50;1664.00;;;;;;5034586;28;20061;-65
2021/01/20 07:36:45;;;;;;;60.47;33.17;;;179.40;1664.00;;;;;;5034891;28;20556;-66
2021/01/20 07:39:26;;;;;;;56.80;33.35;;;179.50;1664.00;;;;;;5034879;28;20049;-65
2021/01/20 07:41:53;;;;;;;62.92;32.92;;;179.50;1664.00;;;;;;5034866;28;20360;-65
2021/01/20 07:44:19;;;;;;;54.80;31.30;;;179.50;1664.00;;;;;;5035020;28;20037;-66
2021/01/20 07:46:45;;;;;;;48.25;24.40;;;179.50;1664.00;;;;;;5034923;28;20022;-66
2021/01/20 07:49:14;;;;;;;51.88;23.88;;;179.50;1664.00;;;;;;5034626;28;20026;-65
2021/01/20 07:51:40;;;;;;;37.55;18.02;;;179.50;1664.00;;;;;;5034555;28;20049;-65
2021/01/20 07:54:07;;;;;;;35.15;18.42;;;179.60;1664.00;;;;;;5034527;28;20029;-66
2021/01/20 07:56:33;;;;;;;33.08;16.52;;;179.60;1664.00;;;;;;5034140;28;20033;-65
2021/01/20 07:59:19;;;;;;;38.80;15.98;;;179.60;1664.00;;;;;;5034572;28;20456;-65
2021/01/20 08:01:46;;;;;;;24.73;13.18;;;179.70;1664.00;;;;;;5034345;28;20033;-65
2021/01/20 08:04:22;;;;;;;27.98;14.07;;;179.70;1638.40;;;;;;5034228;28;20029;-65
2021/01/20 08:06:48;;;;;;;34.38;15.82;;;179.70;1664.00;;;;;;5033521;28;20064;-65
2021/01/20 08:09:14;;;;;;;26.88;13.48;;;179.70;1664.00;;;;;;5031460;28;20419;-67
2021/01/20 08:11:42;;;;;;;37.35;13.55;;;179.70;1664.00;;;;;;5031256;28;20103;-66
2021/01/20 08:14:10;;;;;;;33.47;13.98;;;179.80;1664.00;;;;;;5033210;28;20026;-67
2021/01/20 08:16:38;;;;;;;39.80;14.05;;;179.80;1664.00;;;;;;5032867;28;20056;-66
2021/01/20 08:19:05;;;;;;;34.10;15.48;;;179.70;1664.00;;;;;;5033339;28;20463;-66
2021/01/20 08:21:33;;;;;;;57.63;19.55;;;179.70;1664.00;;;;;;5033378;28;20048;-67
2021/01/20 08:24:05;;;;;;;38.30;19.38;;;179.70;1664.00;;;;;;5032725;28;20088;-66
2021/01/20 08:26:31;;;;;;;42.20;19.30;;;179.70;1689.60;;;;;;5033060;28;20033;-66
2021/01/20 08:29:05;;;;;;;44.53;18.95;;;179.70;1664.00;;;;;;5032962;28;20029;-68
2021/01/20 08:31:31;;;;;;;52.75;26.10;;;179.80;1689.60;;;;;;5032781;28;20152;-66
2021/01/20 08:34:42;;;;;;;38.67;24.65;;;179.80;1689.60;;;;;;5033106;28;20022;-66
2021/01/20 08:37:10;;;;;;;41.70;24.65;;;179.80;1689.60;;;;;;4958930;28;20035;-66
2021/01/20 08:39:50;;;;;;;38.70;23.08;;;179.70;1689.60;;;;;;4951720;29;20027;-67
2021/01/20 08:42:30;;;;;;;32.30;17.35;;;179.70;1689.60;;;;;;4952595;29;20070;-66
2021/01/20 08:45:14;;;;;;;38.72;18.90;;;179.80;1689.60;;;;;;4952357;29;20482;-67
2021/01/20 08:47:52;;;;;;;35.83;14.40;;;179.80;1689.60;;;;;;4952577;29;20724;-66
2021/01/20 08:50:36;;;;;;;43.55;15.75;;;179.80;1740.80;;;;;;4952588;29;20031;-67
2021/01/20 08:53:11;;;;;;;29.73;13.70;;;179.80;1715.20;;;;;;4952259;29;20023;-66
2021/01/20 08:55:39;;;;;;;42.05;15.38;;;179.80;1715.20;;;;;;4952400;29;20043;-66
2021/01/20 08:58:26;;;;;;;36.85;15.13;;;179.70;1715.20;;;;;;4952422;29;20086;-67
2021/01/20 09:01:06;;;;;;;49.38;14.93;;;179.70;1715.20;;;;;;4952059;29;20031;-66
2021/01/20 09:03:39;;;;;;;34.88;15.88;;;179.70;1740.80;;;;;;4952260;29;20093;-66
2021/01/20 09:06:14;;;;;;;36.00;15.93;;;179.70;1740.80;;;;;;4952204;29;20071;-66
2021/01/20 09:08:39;;;;;;;41.85;16.92;;;179.80;1740.80;;;;;;4951922;29;20039;-66
2021/01/20 09:11:05;;;;;;;33.70;14.52;;;179.80;1740.80;;;;;;4997129;28;20046;-66
2021/01/20 09:13:31;;;;;;;29.63;13.45;;;179.80;1740.80;;;;;;5032506;28;20025;-67
2021/01/20 09:15:57;;;;;;;37.90;16.77;;;179.90;1740.80;;;;;;5032202;28;20037;-67
2021/01/20 09:18:24;;;;;;;35.97;17.42;;;179.90;1740.80;;;;;;5032399;28;20072;-67
2021/01/20 09:20:51;;;;;;;30.33;16.55;;;180.00;1740.80;;;;;;5031253;28;20018;-67
2021/01/20 09:23:17;;;;;;;43.78;20.58;;;180.00;1740.80;;;;;;5027984;28;20479;-67
2021/01/20 09:25:43;;;;;;;39.03;19.95;;;180.10;1740.80;;;;;;5032434;28;20029;-67
2021/01/20 09:28:09;;;;;;;46.88;21.35;;;180.10;1740.80;;;;;;5032165;28;20049;-66
2021/01/20 09:30:35;;;;;;;41.45;19.83;;;204.80;1740.80;;;;;;5032088;28;20502;-67
2021/01/20 09:33:01;;;;;;;39.38;16.95;;;204.80;1740.80;;;;;;5032434;28;20104;-66
2021/01/20 09:35:27;;;;;;;36.17;17.23;;;204.80;1740.80;;;;;;5032344;28;20539;-66
2021/01/20 09:37:53;;;;;;;36.00;15.27;;;204.80;1740.80;;;;;;5033239;28;20025;-67
2021/01/20 09:40:24;;;;;;;35.47;12.25;;;204.80;1766.40;;;;;;5017826;28;20052;-66
2021/01/20 09:42:50;;;;;;;37.67;10.98;;;204.80;1740.80;;;;;;5036472;28;20025;-67
2021/01/20 09:45:27;;;;;;;23.75;11.57;;;204.90;1740.80;;;;;;5017921;28;20029;-66
2021/01/20 09:47:58;;;;;;;32.60;11.77;;;204.90;1740.80;;;;;;5036188;28;20044;-66
2021/01/20 09:50:25;;;;;;;35.38;12.80;;;204.90;1740.80;;;;;;5036683;28;20040;-66
2021/01/20 09:52:52;;;;;;;28.48;12.35;;;204.90;1766.40;;;;;;5027146;28;20038;-66
2021/01/20 09:55:20;;;;;;;31.95;11.40;;;204.90;1740.80;;;;;;5024496;28;20049;-66
2021/01/20 09:57:46;;;;;;;32.20;11.80;;;204.90;1740.80;;;;;;5026435;28;20557;-66
2021/01/20 10:00:12;;;;;;;28.83;14.85;;;204.90;1740.80;;;;;;5025266;28;20045;-67
2021/01/20 10:02:40;;;;;;;41.83;17.17;;;205.00;1740.80;;;;;;5024467;28;20036;-66
2021/01/20 10:05:09;;;;;;;61.47;24.52;;;205.00;1740.80;;;;;;5023499;28;20025;-66
2021/01/20 10:07:36;;;;;;;79.18;28.65;;;205.10;1740.80;;;;;;5029831;28;20148;-67
2021/01/20 10:10:03;;;;;;;93.50;33.22;;;205.10;1740.80;;;;;;5024646;28;20496;-66
2021/01/20 10:12:28;;;;;;;90.82;36.00;;;205.20;1740.80;;;;;;5025983;28;20376;-67
2021/01/20 10:14:54;;;;;;;101.05;39.80;;;205.10;1766.40;;;;;;5024383;28;20030;-67
2021/01/20 10:17:22;;;;;;;88.25;41.38;;;205.20;1766.40;;;;;;5024773;28;20021;-67
2021/01/20 10:19:48;;;;;;;51.30;27.85;;;205.20;1766.40;;;;;;5025768;28;20041;-67
2021/01/20 10:22:14;;;;;;;42.90;23.33;;;205.20;1766.40;;;;;;5024392;28;20072;-67
2021/01/20 10:24:39;;;;;;;50.20;19.50;;;205.20;1766.40;;;;;;5024914;28;20026;-67
2021/01/20 10:27:05;;;;;;;32.85;16.65;;;205.30;1766.40;;;;;;5025733;28;20026;-67
2021/01/20 10:29:31;;;;;;;33.05;13.18;;;205.30;1766.40;;;;;;5026134;28;20040;-67
2021/01/20 10:31:56;;;;;;;21.95;11.30;;;205.30;1792.00;;;;;;5024497;28;20412;-67
2021/01/20 10:34:22;;;;;;;26.38;12.45;;;205.30;1766.40;;;;;;5024318;28;20037;-67
2021/01/20 10:36:48;;;;;;;20.58;12.07;;;205.30;1766.40;;;;;;5025987;28;20049;-73
2021/01/20 10:39:14;;;;;;;27.23;13.05;;;205.40;1766.40;;;;;;5030327;28;20022;-67
2021/01/20 10:41:40;;;;;;;30.63;14.18;;;205.40;1766.40;;;;;;5016043;28;20030;-67
2021/01/20 10:44:07;;;;;;;41.78;17.73;;;205.50;1766.40;;;;;;5034159;28;20120;-67
2021/01/20 10:46:33;;;;;;;28.40;13.18;;;205.60;1766.40;;;;;;5035932;28;20104;-67
2021/01/20 10:49:00;;;;;;;38.80;16.33;;;205.70;1766.40;;;;;;5035753;28;20558;-67
2021/01/20 10:51:28;;;;;;;29.83;13.63;;;230.40;1766.40;;;;;;5033669;28;20433;-67
2021/01/20 10:53:54;;;;;;;21.92;11.77;;;230.40;1766.40;;;;;;5028064;28;20037;-73
2021/01/20 10:56:20;;;;;;;25.77;11.20;;;230.60;1766.40;;;;;;4997341;28;20041;-67
2021/01/20 10:58:46;;;;;;;19.33;10.75;;;230.60;1766.40;;;;;;5015782;28;20026;-67
2021/01/20 11:01:11;;;;;;;32.63;12.23;;;230.70;1766.40;;;;;;5033182;28;20040;-66
2021/01/20 11:03:40;;;;;;;24.35;12.40;;;230.80;1740.80;;;;;;5035585;28;20375;-68
2021/01/20 11:06:07;;;;;;;41.15;14.05;;;230.80;1740.80;;;;;;5035561;28;20021;-68
2021/01/20 11:08:33;;;;;;;55.33;26.95;;;230.90;1740.80;;;;;;5035467;28;20048;-68
2021/01/20 11:11:00;;;;;;;64.72;36.63;;;230.90;1740.80;;;;;;5035309;28;20434;-68
2021/01/20 11:13:26;;;;;;;100.43;64.47;;;230.90;1715.20;;;;;;5035572;28;20175;-68
2021/01/20 11:15:52;;;;;;;110.88;72.70;;;230.90;1715.20;;;;;;5035194;28;20494;-68
2021/01/20 11:18:19;;;;;;;122.15;76.10;;;230.90;1715.20;;;;;;5035319;28;20104;-68
2021/01/20 11:20:47;;;;;;;138.00;76.18;;;230.90;1715.20;;;;;;5035319;28;20051;-68
2021/01/20 11:23:13;;;;;;;129.38;68.57;;;231.00;1715.20;;;;;;5035254;28;20028;-68
2021/01/20 11:25:44;;;;;;;110.25;61.70;;;231.00;1715.20;;;;;;5035031;28;20486;-68
2021/01/20 11:28:10;;;;;;;90.10;51.15;;;231.00;1689.60;;;;;;5035128;28;20029;-68
2021/01/20 11:30:36;;;;;;;65.22;38.78;;;231.00;1689.60;;;;;;5035080;28;20025;-68
2021/01/20 11:33:02;;;;;;;51.67;29.58;;;231.00;1689.60;;;;;;5034464;28;20022;-68
2021/01/20 11:35:28;;;;;;;49.95;30.02;;;231.00;1689.60;;;;;;5035051;28;20094;-68
2021/01/20 11:37:56;;;;;;;59.90;32.47;;;231.10;1689.60;;;;;;5034570;28;20029;-68
2021/01/20 11:40:24;;;;;;;54.17;31.00;;;231.10;1689.60;;;;;;5034916;28;20037;-68
2021/01/20 11:42:57;;;;;;;45.10;27.58;;;231.10;1689.60;;;;;;5034733;28;20072;-68
2021/01/20 11:45:26;;;;;;;45.42;28.20;;;231.20;1715.20;;;;;;5034674;28;20033;-68
2021/01/20 11:47:52;;;;;;;40.47;27.25;;;231.20;1689.60;;;;;;5034707;28;20033;-68
2021/01/20 11:50:18;;;;;;;49.97;27.13;;;231.30;1689.60;;;;;;5034784;28;20029;-68
2021/01/20 11:52:43;;;;;;;45.70;27.35;;;231.20;1689.60;;;;;;5034458;28;20049;-68
2021/01/20 11:55:10;;;;;;;36.13;23.48;;;231.30;1689.60;;;;;;5016272;28;20081;-67
2021/01/20 11:57:35;;;;;;;33.67;20.77;;;256.00;1689.60;;;;;;5016626;28;20033;-68
2021/01/20 12:00:01;;;;;;;30.55;17.85;;;256.10;1689.60;;;;;;5034191;28;20035;-68
2021/01/20 12:02:27;;;;;;;27.77;17.08;;;256.20;1689.60;;;;;;5034337;28;20026;-68
2021/01/20 12:04:52;;;;;;;23.83;14.48;;;256.20;1689.60;;;;;;5034832;28;20353;-68
2021/01/20 12:07:18;;;;;;;22.33;13.98;;;256.30;1689.60;;;;;;5034316;28;20029;-68